createdAt,value
2019-03-15T00:01:37.715Z,19.56
2019-03-15T00:04:06.140Z,19.55
2019-03-15T00:06:34.579Z,19.54
2019-03-15T00:09:04.054Z,19.53
2019-03-15T00:11:32.485Z,19.51
2019-03-15T00:14:00.915Z,19.51
2019-03-15T00:16:29.339Z,19.51
2019-03-15T00:18:57.810Z,19.50
2019-03-15T00:21:26.246Z,19.49
2019-03-15T00:23:54.679Z,19.49
2019-03-15T00:26:23.155Z,19.50
2019-03-15T00:28:51.617Z,19.48
2019-03-15T00:31:20.019Z,19.48
2019-03-15T00:33:48.455Z,19.47
2019-03-15T00:36:16.857Z,19.48
2019-03-15T00:38:45.300Z,19.47
2019-03-15T00:41:13.718Z,19.47
2019-03-15T00:43:42.140Z,19.47
2019-03-15T00:46:10.554Z,19.45
2019-03-15T00:48:38.983Z,19.46
2019-03-15T00:51:07.378Z,19.45
2019-03-15T00:53:35.830Z,19.44
2019-03-15T00:56:04.224Z,19.45
2019-03-15T00:58:32.633Z,19.44
2019-03-15T01:01:01.063Z,19.43
2019-03-15T01:03:29.510Z,19.43
2019-03-15T01:05:57.921Z,19.42
2019-03-15T01:08:26.364Z,19.42
2019-03-15T01:10:54.806Z,19.41
2019-03-15T01:13:23.285Z,19.41
2019-03-15T01:15:51.711Z,19.40
2019-03-15T01:18:20.121Z,19.41
2019-03-15T01:20:48.525Z,19.40
2019-03-15T01:23:16.936Z,19.41
2019-03-15T01:25:45.381Z,19.41
2019-03-15T01:28:13.809Z,19.39
2019-03-15T01:30:42.200Z,19.38
2019-03-15T01:33:10.644Z,19.38
2019-03-15T01:35:39.075Z,19.37
2019-03-15T01:38:07.488Z,19.37
2019-03-15T01:40:35.912Z,19.38
2019-03-15T01:43:04.354Z,19.37
2019-03-15T01:45:32.784Z,19.35
2019-03-15T01:48:01.235Z,19.35
2019-03-15T01:50:29.646Z,19.36
2019-03-15T01:52:58.513Z,19.39
2019-03-15T01:55:27.061Z,19.38
2019-03-15T01:57:55.492Z,19.40
2019-03-15T02:00:23.920Z,19.39
2019-03-15T02:02:52.328Z,19.39
2019-03-15T02:05:20.854Z,19.39
2019-03-15T02:07:49.266Z,19.38
2019-03-15T02:10:17.766Z,19.36
2019-03-15T02:12:46.269Z,19.37
2019-03-15T02:15:15.884Z,19.37
2019-03-15T02:17:44.310Z,19.38
2019-03-15T02:20:12.724Z,19.39
2019-03-15T02:22:41.160Z,19.39
2019-03-15T02:25:09.561Z,19.42
2019-03-15T02:27:37.998Z,19.40
2019-03-15T02:30:09.448Z,19.40
2019-03-15T02:32:39.317Z,19.40
2019-03-15T02:35:08.038Z,19.40
2019-03-15T02:37:36.507Z,19.40
2019-03-15T02:40:06.543Z,19.39
2019-03-15T02:42:35.034Z,19.40
2019-03-15T02:45:03.448Z,19.40
2019-03-15T02:47:31.887Z,19.38
2019-03-15T02:50:01.298Z,19.40
2019-03-15T02:52:30.506Z,19.38
2019-03-15T02:54:58.927Z,19.39
2019-03-15T02:57:27.385Z,19.39
2019-03-15T02:59:55.790Z,19.41
2019-03-15T03:02:24.185Z,19.41
2019-03-15T03:04:52.619Z,19.41
2019-03-15T03:07:21.300Z,19.41
2019-03-15T03:09:49.769Z,19.40
2019-03-15T03:12:18.217Z,19.40
2019-03-15T03:14:46.693Z,19.40
2019-03-15T03:17:15.130Z,19.40
2019-03-15T03:19:43.552Z,19.40
2019-03-15T03:22:11.958Z,19.40
2019-03-15T03:24:40.424Z,19.39
2019-03-15T03:27:08.877Z,19.40
2019-03-15T03:29:37.282Z,19.40
2019-03-15T03:32:05.686Z,19.39
2019-03-15T03:34:34.657Z,19.39
2019-03-15T03:37:03.317Z,19.39
2019-03-15T03:39:31.749Z,19.39
2019-03-15T03:42:00.196Z,19.40
2019-03-15T03:44:28.622Z,19.41
2019-03-15T03:46:57.026Z,19.40
2019-03-15T03:49:25.469Z,19.40
2019-03-15T03:51:53.963Z,19.39
2019-03-15T03:54:22.359Z,19.39
2019-03-15T03:56:50.803Z,19.39
2019-03-15T03:59:19.196Z,19.41
2019-03-15T04:01:47.641Z,19.41
2019-03-15T04:04:16.112Z,19.41
2019-03-15T04:06:44.529Z,19.41
2019-03-15T04:09:12.951Z,19.42
2019-03-15T04:11:54.269Z,19.41
2019-03-15T04:14:11.507Z,19.40
2019-03-15T04:16:39.919Z,19.40
2019-03-15T04:19:08.328Z,19.39
2019-03-15T04:21:36.757Z,19.40
2019-03-15T04:24:05.183Z,19.39
2019-03-15T04:26:33.613Z,19.39
2019-03-15T04:29:02.054Z,19.40
2019-03-15T04:31:30.485Z,19.39
2019-03-15T04:33:58.923Z,19.41
2019-03-15T04:36:27.351Z,19.42
2019-03-15T04:38:55.769Z,19.40
2019-03-15T04:41:24.172Z,19.42
2019-03-15T04:43:52.599Z,19.42
2019-03-15T04:46:21.042Z,19.43
2019-03-15T04:48:49.503Z,19.43
2019-03-15T04:51:17.939Z,19.43
2019-03-15T04:53:46.398Z,19.43
2019-03-15T04:56:14.816Z,19.42
2019-03-15T04:58:43.231Z,19.41
2019-03-15T05:01:11.661Z,19.42
2019-03-15T05:03:40.108Z,19.42
2019-03-15T05:06:08.495Z,19.42
2019-03-15T05:08:36.932Z,19.42
2019-03-15T05:11:05.736Z,19.44
2019-03-15T05:13:34.468Z,19.42
2019-03-15T05:16:02.831Z,19.43
2019-03-15T05:18:31.245Z,19.43
2019-03-15T05:20:59.682Z,19.43
2019-03-15T05:23:28.102Z,19.42
2019-03-15T05:25:56.524Z,19.42
2019-03-15T05:28:25.008Z,19.44
2019-03-15T05:30:53.414Z,19.42
2019-03-15T05:33:21.918Z,19.43
2019-03-15T05:35:50.542Z,19.43
2019-03-15T05:38:18.962Z,19.43
2019-03-15T05:40:47.361Z,19.42
2019-03-15T05:43:15.788Z,19.44
2019-03-15T05:45:44.243Z,19.46
2019-03-15T05:48:12.641Z,19.46
2019-03-15T05:50:41.238Z,19.46
2019-03-15T05:53:09.656Z,19.47
2019-03-15T05:55:38.082Z,19.47
2019-03-15T05:58:07.114Z,19.48
2019-03-15T06:00:35.493Z,19.48
2019-03-15T06:03:03.932Z,19.47
2019-03-15T06:05:32.368Z,19.46
2019-03-15T06:08:00.781Z,19.46
2019-03-15T06:10:29.188Z,19.46
2019-03-15T06:12:58.012Z,19.46
2019-03-15T06:15:26.394Z,19.45
2019-03-15T06:17:54.829Z,19.45
2019-03-15T06:20:23.231Z,19.46
2019-03-15T06:22:51.623Z,19.45
2019-03-15T06:25:20.064Z,19.47
2019-03-15T06:27:48.503Z,19.45
2019-03-15T06:30:16.905Z,19.45
2019-03-15T06:32:45.340Z,19.43
2019-03-15T06:35:14.277Z,19.45
2019-03-15T06:37:42.705Z,19.45
2019-03-15T06:40:13.725Z,19.45
2019-03-15T06:42:42.568Z,19.44
2019-03-15T06:45:12.819Z,19.46
2019-03-15T06:47:41.348Z,19.47
2019-03-15T06:50:09.918Z,19.46
2019-03-15T06:52:38.357Z,19.47
2019-03-15T06:55:09.980Z,19.47
2019-03-15T06:57:38.382Z,19.47
2019-03-15T07:00:12.327Z,19.47
2019-03-15T07:02:40.847Z,19.47
2019-03-15T07:05:11.989Z,19.45
2019-03-15T07:07:39.811Z,19.44
2019-03-15T07:10:10.644Z,19.43
2019-03-15T07:12:40.467Z,19.44
2019-03-15T07:15:11.558Z,19.48
2019-03-15T07:17:39.976Z,19.48
2019-03-15T07:20:16.380Z,19.50
2019-03-15T07:22:44.872Z,19.50
2019-03-15T07:25:13.537Z,19.50
2019-03-15T07:27:42.986Z,19.50
2019-03-15T07:30:16.234Z,19.49
2019-03-15T07:32:44.719Z,19.48
2019-03-15T07:35:13.298Z,19.46
2019-03-15T07:37:44.119Z,19.47
2019-03-15T07:40:13.205Z,19.45
2019-03-15T07:42:41.616Z,19.44
2019-03-15T07:45:12.027Z,19.43
2019-03-15T07:47:40.442Z,19.44
2019-03-15T07:50:14.359Z,19.43
2019-03-15T07:52:43.011Z,19.42
2019-03-15T07:55:11.816Z,19.41
2019-03-15T07:57:40.217Z,19.41
2019-03-15T08:00:16.782Z,19.39
2019-03-15T08:02:45.205Z,19.39
2019-03-15T08:05:13.700Z,19.38
2019-03-15T08:07:45.295Z,19.38
2019-03-15T08:10:13.399Z,19.39
2019-03-15T08:12:41.878Z,19.38
2019-03-15T08:15:12.815Z,19.39
2019-03-15T08:17:41.222Z,19.39
2019-03-15T08:20:14.407Z,19.40
2019-03-15T08:22:42.842Z,19.41
2019-03-15T08:25:12.189Z,19.44
2019-03-15T08:27:40.722Z,19.45
2019-03-15T08:30:11.953Z,19.45
2019-03-15T08:32:43.472Z,19.47
2019-03-15T08:35:11.844Z,19.47
2019-03-15T08:37:40.353Z,19.49
2019-03-15T08:40:11.082Z,19.49
2019-03-15T08:42:39.703Z,19.49
2019-03-15T08:45:19.490Z,19.49
2019-03-15T08:47:47.935Z,19.50
2019-03-15T08:50:17.600Z,19.49
2019-03-15T08:52:46.036Z,19.49
2019-03-15T08:55:14.894Z,19.49
2019-03-15T08:57:43.329Z,19.49
2019-03-15T09:00:19.022Z,19.49
2019-03-15T09:02:47.612Z,19.49
2019-03-15T09:05:16.706Z,19.50
2019-03-15T09:07:45.137Z,19.51
2019-03-15T09:10:23.095Z,19.52
2019-03-15T09:12:45.768Z,19.54
2019-03-15T09:15:14.467Z,19.52
2019-03-15T09:17:43.150Z,19.51
2019-03-15T09:20:16.085Z,19.52
2019-03-15T09:22:44.901Z,19.53
2019-03-15T09:25:19.946Z,19.54
2019-03-15T09:27:45.881Z,19.54
2019-03-15T09:30:23.312Z,19.55
2019-03-15T09:32:45.469Z,19.59
2019-03-15T09:35:14.031Z,19.59
2019-03-15T09:37:42.448Z,19.58
2019-03-15T09:40:18.239Z,19.59
2019-03-15T09:42:46.659Z,19.60
2019-03-15T09:45:17.471Z,19.61
2019-03-15T09:47:46.053Z,19.63
2019-03-15T09:50:33.697Z,19.63
2019-03-15T09:52:45.641Z,19.63
2019-03-15T09:55:14.683Z,19.64
2019-03-15T09:57:43.124Z,19.63
2019-03-15T10:00:16.502Z,19.64
2019-03-15T10:02:45.256Z,19.64
2019-03-15T10:05:14.181Z,19.64
2019-03-15T10:07:43.812Z,19.65
2019-03-15T10:10:18.373Z,19.66
2019-03-15T10:12:45.895Z,19.65
2019-03-15T10:15:15.499Z,19.67
2019-03-15T10:17:44.043Z,19.67
2019-03-15T10:20:13.317Z,19.67
2019-03-15T10:22:41.831Z,19.68
2019-03-15T10:25:15.094Z,19.66
2019-03-15T10:27:43.572Z,19.67
2019-03-15T10:30:21.985Z,19.68
2019-03-15T10:32:50.376Z,19.71
2019-03-15T10:35:19.196Z,19.70
2019-03-15T10:37:47.595Z,19.71
2019-03-15T10:40:21.277Z,19.70
2019-03-15T10:42:49.699Z,19.71
2019-03-15T10:45:18.159Z,19.71
2019-03-15T10:47:46.671Z,19.71
2019-03-15T10:50:19.042Z,19.72
2019-03-15T10:52:47.502Z,19.71
2019-03-15T10:55:15.980Z,19.72
2019-03-15T10:57:44.385Z,19.72
2019-03-15T11:00:19.774Z,19.73
2019-03-15T11:02:48.458Z,19.73
2019-03-15T11:05:17.030Z,19.74
2019-03-15T11:07:45.527Z,19.73
2019-03-15T11:10:14.290Z,19.75
2019-03-15T11:12:42.714Z,19.75
2019-03-15T11:15:12.674Z,19.76
2019-03-15T11:17:41.108Z,19.76
2019-03-15T11:20:10.860Z,19.74
2019-03-15T11:22:39.270Z,19.74
2019-03-15T11:25:10.478Z,19.76
2019-03-15T11:27:38.883Z,19.77
2019-03-15T11:30:14.554Z,19.77
2019-03-15T11:32:43.055Z,19.76
2019-03-15T11:35:12.143Z,19.77
2019-03-15T11:37:40.723Z,19.77
2019-03-15T11:40:14.556Z,19.76
2019-03-15T11:42:43.113Z,19.77
2019-03-15T11:45:12.648Z,19.78
2019-03-15T11:48:01.162Z,19.79
2019-03-15T11:50:16.215Z,19.79
2019-03-15T11:52:44.617Z,19.81
2019-03-15T11:55:13.182Z,19.83
2019-03-15T11:57:41.596Z,19.83
2019-03-15T12:00:17.227Z,19.81
2019-03-15T12:02:45.700Z,19.82
2019-03-15T12:05:15.192Z,19.81
2019-03-15T12:07:43.937Z,19.82
2019-03-15T12:10:17.034Z,19.82
2019-03-15T12:12:45.450Z,19.83
2019-03-15T12:15:15.297Z,19.84
2019-03-15T12:17:43.813Z,19.83
2019-03-15T12:20:13.256Z,19.83
2019-03-15T12:22:41.682Z,19.84
2019-03-15T12:25:11.057Z,19.85
2019-03-15T12:27:39.543Z,19.86
2019-03-15T12:30:13.531Z,19.87
2019-03-15T12:32:41.945Z,19.87
2019-03-15T12:35:11.691Z,19.88
2019-03-15T12:37:40.096Z,19.88
2019-03-15T12:40:11.408Z,19.87
2019-03-15T12:42:39.815Z,19.88
2019-03-15T12:45:12.192Z,19.88
2019-03-15T12:47:40.614Z,19.89
2019-03-15T12:50:15.912Z,19.89
2019-03-15T12:52:48.763Z,19.89
2019-03-15T12:55:15.287Z,19.90
2019-03-15T12:57:43.707Z,19.91
2019-03-15T13:00:15.176Z,19.91
2019-03-15T13:02:43.653Z,19.93
2019-03-15T13:05:12.277Z,19.93
2019-03-15T13:07:40.759Z,19.94
2019-03-15T13:10:14.799Z,19.95
2019-03-15T13:12:43.246Z,19.96
2019-03-15T13:15:15.943Z,19.99
2019-03-15T13:17:44.391Z,20.04
2019-03-15T13:20:16.709Z,20.05
2019-03-15T13:22:45.153Z,20.05
2019-03-15T13:25:13.743Z,20.06
2019-03-15T13:27:42.387Z,20.08
2019-03-15T13:30:13.175Z,20.13
2019-03-15T13:32:41.629Z,20.14
2019-03-15T13:35:10.587Z,20.15
2019-03-15T13:37:42.572Z,20.18
2019-03-15T13:40:17.577Z,20.19
2019-03-15T13:42:46.054Z,20.21
2019-03-15T13:45:15.434Z,20.23
2019-03-15T13:47:43.996Z,20.25
2019-03-15T13:50:17.243Z,20.27
2019-03-15T13:52:45.664Z,20.30
2019-03-15T13:55:14.437Z,20.31
2019-03-15T13:57:42.870Z,20.33
2019-03-15T14:00:17.281Z,20.31
2019-03-15T14:02:45.745Z,20.30
2019-03-15T14:05:14.503Z,20.31
2019-03-15T14:07:42.920Z,20.31
2019-03-15T14:10:15.345Z,20.30
2019-03-15T14:12:43.833Z,20.32
2019-03-15T14:15:14.493Z,20.33
2019-03-15T14:17:42.916Z,20.34
2019-03-15T14:20:12.601Z,20.34
2019-03-15T14:22:41.040Z,20.33
2019-03-15T14:25:29.214Z,20.33
2019-03-15T14:27:57.642Z,20.36
2019-03-15T14:30:26.084Z,20.37
2019-03-15T14:32:54.520Z,20.37
2019-03-15T14:35:22.930Z,20.39
2019-03-15T14:37:51.431Z,20.37
2019-03-15T14:40:20.057Z,20.38
2019-03-15T14:42:48.742Z,20.39
2019-03-15T14:45:17.150Z,20.39
2019-03-15T14:47:45.563Z,20.41
2019-03-15T14:50:14.712Z,20.45
2019-03-15T14:52:43.141Z,20.49
2019-03-15T14:55:14.240Z,20.49
2019-03-15T14:57:51.814Z,20.51
2019-03-15T15:00:17.737Z,20.48
2019-03-15T15:02:46.244Z,20.46
2019-03-15T15:05:14.743Z,20.43
2019-03-15T15:07:43.167Z,20.43
2019-03-15T15:10:13.318Z,20.43
2019-03-15T15:12:41.745Z,20.43
2019-03-15T15:15:12.319Z,20.44
2019-03-15T15:17:40.754Z,20.44
2019-03-15T15:20:10.704Z,20.44
2019-03-15T15:22:39.154Z,20.46
2019-03-15T15:25:17.996Z,20.45
2019-03-15T15:27:46.485Z,20.46
2019-03-15T15:30:16.820Z,20.47
2019-03-15T15:32:45.314Z,20.48
2019-03-15T15:35:14.604Z,20.44
2019-03-15T15:37:43.011Z,20.45
2019-03-15T15:40:13.656Z,20.44
2019-03-15T15:42:42.108Z,20.47
2019-03-15T15:45:11.867Z,20.52
2019-03-15T15:47:40.280Z,20.53
2019-03-15T15:50:11.083Z,20.52
2019-03-15T15:52:39.497Z,20.49
2019-03-15T15:55:10.342Z,20.47
2019-03-15T15:57:38.754Z,20.47
2019-03-15T16:00:12.754Z,20.48
2019-03-15T16:02:41.155Z,20.48
2019-03-15T16:05:09.748Z,20.48
2019-03-15T16:07:38.281Z,20.48
2019-03-15T16:10:17.341Z,20.48
2019-03-15T16:12:45.036Z,20.50
2019-03-15T16:15:15.605Z,20.48
2019-03-15T16:17:45.689Z,20.47
2019-03-15T16:20:14.237Z,20.46
2019-03-15T16:22:42.661Z,20.45
2019-03-15T16:25:11.926Z,20.45
2019-03-15T16:27:40.440Z,20.44
2019-03-15T16:30:21.510Z,20.44
2019-03-15T16:32:49.967Z,20.44
2019-03-15T16:35:18.444Z,20.46
2019-03-15T16:37:46.843Z,20.47
2019-03-15T16:40:16.231Z,20.47
2019-03-15T16:42:44.652Z,20.48
2019-03-15T16:45:15.824Z,20.47
2019-03-15T16:47:44.231Z,20.50
2019-03-15T16:50:13.396Z,20.49
2019-03-15T16:52:41.914Z,20.48
2019-03-15T16:55:11.703Z,20.47
2019-03-15T16:57:40.246Z,20.47
2019-03-15T17:00:15.435Z,20.48
2019-03-15T17:02:43.911Z,20.46
2019-03-15T17:05:13.486Z,20.46
2019-03-15T17:07:42.237Z,20.45
2019-03-15T17:10:18.013Z,20.44
2019-03-15T17:12:46.501Z,20.45
2019-03-15T17:15:23.341Z,20.45
2019-03-15T17:17:51.730Z,20.44
2019-03-15T17:20:20.203Z,20.44
2019-03-15T17:22:48.656Z,20.44
2019-03-15T17:25:17.163Z,20.42
2019-03-15T17:27:45.592Z,20.44
2019-03-15T17:30:15.293Z,20.46
2019-03-15T17:32:43.953Z,20.46
2019-03-15T17:35:14.623Z,20.47
2019-03-15T17:37:43.148Z,20.50
2019-03-15T17:40:14.673Z,20.49
2019-03-15T17:42:43.282Z,20.49
2019-03-15T17:45:12.056Z,20.51
2019-03-15T17:47:40.649Z,20.52
2019-03-15T17:50:11.883Z,20.61
2019-03-15T17:52:40.389Z,20.62
2019-03-15T17:55:09.071Z,20.58
2019-03-15T17:57:37.527Z,20.52
2019-03-15T18:00:15.045Z,20.51
2019-03-15T18:02:43.513Z,20.53
2019-03-15T18:05:12.025Z,20.49
2019-03-15T18:07:40.456Z,20.48
2019-03-15T18:10:09.691Z,20.46
2019-03-15T18:12:38.127Z,20.45
2019-03-15T18:15:08.938Z,20.41
2019-03-15T18:17:37.365Z,20.41
2019-03-15T18:20:07.837Z,20.41
2019-03-15T18:22:36.268Z,20.40
2019-03-15T18:25:06.150Z,20.41
2019-03-15T18:27:34.565Z,20.41
2019-03-15T18:30:03.197Z,20.40
2019-03-15T18:32:31.637Z,20.39
2019-03-15T18:35:00.032Z,20.36
2019-03-15T18:37:28.554Z,20.36
2019-03-15T18:39:57.152Z,20.37
2019-03-15T18:42:25.608Z,20.37
2019-03-15T18:44:54.012Z,20.38
2019-03-15T18:47:22.494Z,20.37
2019-03-15T18:49:50.929Z,20.37
2019-03-15T18:52:19.351Z,20.34
2019-03-15T18:54:47.846Z,20.35
2019-03-15T18:57:16.287Z,20.34
2019-03-15T18:59:44.717Z,20.34
2019-03-15T19:02:13.116Z,20.34
2019-03-15T19:04:41.579Z,20.34
2019-03-15T19:07:09.996Z,20.34
2019-03-15T19:09:38.407Z,20.36
2019-03-15T19:12:06.858Z,20.36
2019-03-15T19:14:35.269Z,20.36
2019-03-15T19:17:03.676Z,20.35
2019-03-15T19:19:32.146Z,20.34
2019-03-15T19:22:00.641Z,20.34
2019-03-15T19:24:29.064Z,20.36
2019-03-15T19:26:57.488Z,20.36
2019-03-15T19:29:25.909Z,20.35
2019-03-15T19:31:54.344Z,20.35
2019-03-15T19:34:22.796Z,20.36
2019-03-15T19:36:51.203Z,20.36
2019-03-15T19:39:19.648Z,20.35
2019-03-15T19:41:48.083Z,20.34
2019-03-15T19:44:16.523Z,20.33
2019-03-15T19:46:44.940Z,20.34
2019-03-15T19:49:13.343Z,20.35
2019-03-15T19:51:41.756Z,20.37
2019-03-15T19:54:10.206Z,20.37
2019-03-15T19:56:38.613Z,20.38
2019-03-15T19:59:07.056Z,20.39
2019-03-15T20:01:35.484Z,20.38
2019-03-15T20:04:03.920Z,20.41
2019-03-15T20:06:32.331Z,20.41
2019-03-15T20:09:00.769Z,20.40
2019-03-15T20:11:29.192Z,20.44
2019-03-15T20:13:57.622Z,20.47
2019-03-15T20:16:26.118Z,20.48
2019-03-15T20:18:54.561Z,20.46
2019-03-15T20:21:22.980Z,20.46
2019-03-15T20:23:51.410Z,20.46
2019-03-15T20:26:19.826Z,20.47
2019-03-15T20:28:48.261Z,20.47
2019-03-15T20:31:16.714Z,20.46
2019-03-15T20:33:45.151Z,20.47
2019-03-15T20:36:13.672Z,20.48
2019-03-15T20:38:42.098Z,20.50
2019-03-15T20:41:10.532Z,20.51
2019-03-15T20:43:38.971Z,20.51
2019-03-15T20:46:07.401Z,20.51
2019-03-15T20:48:35.842Z,20.52
2019-03-15T20:51:04.256Z,20.53
2019-03-15T20:53:32.700Z,20.54
2019-03-15T20:56:01.118Z,20.53
2019-03-15T20:58:29.610Z,20.53
2019-03-15T21:00:58.052Z,20.55
2019-03-15T21:03:26.478Z,20.55
2019-03-15T21:05:54.930Z,20.58
2019-03-15T21:08:23.345Z,20.58
2019-03-15T21:10:51.857Z,20.57
2019-03-15T21:13:20.288Z,20.57
2019-03-15T21:15:48.755Z,20.59
2019-03-15T21:18:17.191Z,20.58
2019-03-15T21:20:45.606Z,20.58
2019-03-15T21:23:14.038Z,20.58
2019-03-15T21:25:42.490Z,20.57
2019-03-15T21:28:10.912Z,20.58
2019-03-15T21:30:48.407Z,20.58
2019-03-15T21:33:09.466Z,20.56
2019-03-15T21:35:37.896Z,20.55
2019-03-15T21:38:06.338Z,20.56
2019-03-15T21:40:34.766Z,20.58
2019-03-15T21:43:03.184Z,20.58
2019-03-15T21:45:31.598Z,20.56
2019-03-15T21:48:00.051Z,20.56
2019-03-15T21:50:28.462Z,20.54
2019-03-15T21:52:56.891Z,20.56
2019-03-15T21:55:25.337Z,20.54
2019-03-15T21:57:53.743Z,20.53
2019-03-15T22:00:22.173Z,20.51
2019-03-15T22:02:50.665Z,20.50
2019-03-15T22:05:19.099Z,20.48
2019-03-15T22:07:47.510Z,20.48
2019-03-15T22:10:16.969Z,20.47
2019-03-15T22:12:45.470Z,20.46
2019-03-15T22:15:14.548Z,20.46
2019-03-15T22:17:43.336Z,20.44
2019-03-15T22:20:18.615Z,20.44
2019-03-15T22:22:47.016Z,20.43
2019-03-15T22:25:15.438Z,20.42
2019-03-15T22:27:43.933Z,20.42
2019-03-15T22:30:13.890Z,20.42
2019-03-15T22:32:42.410Z,20.40
2019-03-15T22:35:11.370Z,20.38
2019-03-15T22:37:39.808Z,20.39
2019-03-15T22:40:10.090Z,20.38
2019-03-15T22:42:38.674Z,20.37
2019-03-15T22:45:11.948Z,20.37
2019-03-15T22:47:40.351Z,20.38
2019-03-15T22:50:13.448Z,20.37
2019-03-15T22:52:42.005Z,20.38
2019-03-15T22:55:11.783Z,20.37
2019-03-15T22:57:40.271Z,20.38
2019-03-15T23:00:14.701Z,20.38
2019-03-15T23:02:43.325Z,20.36
2019-03-15T23:05:12.039Z,20.35
2019-03-15T23:07:40.500Z,20.36
2019-03-15T23:10:10.282Z,20.36
2019-03-15T23:12:38.857Z,20.35
2019-03-15T23:15:09.468Z,20.35
2019-03-15T23:17:37.885Z,20.35
2019-03-15T23:20:08.547Z,20.36
2019-03-15T23:22:36.988Z,20.36
2019-03-15T23:25:06.858Z,20.36
2019-03-15T23:27:35.288Z,20.36
2019-03-15T23:30:05.048Z,20.37
2019-03-15T23:32:33.507Z,20.36
2019-03-15T23:35:01.931Z,20.36
2019-03-15T23:37:30.368Z,20.36
2019-03-15T23:39:58.790Z,20.36
2019-03-15T23:42:27.224Z,20.35
2019-03-15T23:44:55.671Z,20.34
2019-03-15T23:47:24.071Z,20.35
2019-03-15T23:49:52.607Z,20.34
2019-03-15T23:52:21.039Z,20.35
2019-03-15T23:54:49.468Z,20.35
2019-03-15T23:57:17.914Z,20.34
2019-03-15T23:59:46.389Z,20.35
